Time;durP1;ratioP1;P1;durP2;ratioP2;P2;SDS_P1;SDS_P2;PMS_P1;PMS_P2;Temp;Humidity;BMP_temperature;BMP_pressure;BME280_temperature;BME280_humidity;BME280_pressure;Samples;Min_cycle;Max_cycle;Signal;HPM_P1;HPM_P2
2023/07/10 00:01:03;;;;;;;127.15;120.85;;;;;;;;;;5016774;28;20045;-72
2023/07/10 00:03:29;;;;;;;126.13;119.82;;;;;;;;;;5015914;28;20069;-71
2023/07/10 00:05:55;;;;;;;122.68;116.60;;;;;;;;;;5018572;28;20037;-71
2023/07/10 00:08:21;;;;;;;119.13;113.10;;;;;;;;;;5012936;28;20107;-71
2023/07/10 00:10:46;;;;;;;116.25;110.55;;;;;;;;;;5016237;28;20034;-72
2023/07/10 00:13:13;;;;;;;115.40;109.70;;;;;;;;;;5013909;28;20120;-71
2023/07/10 00:15:39;;;;;;;104.88;99.65;;;;;;;;;;5016055;28;20265;-71
2023/07/10 00:18:12;;;;;;;100.65;95.55;;;;;;;;;;5017619;28;20037;-72
2023/07/10 00:20:38;;;;;;;99.03;93.88;;;;;;;;;;5015351;28;20045;-71
2023/07/10 00:23:03;;;;;;;99.80;94.47;;;;;;;;;;5016466;28;20068;-72
2023/07/10 00:25:28;;;;;;;90.55;86.05;;;;;;;;;;5015916;28;20060;-71
2023/07/10 00:27:54;;;;;;;98.78;93.70;;;;;;;;;;5014944;28;20037;-71
2023/07/10 00:30:24;;;;;;;93.55;88.88;;;;;;;;;;5014196;28;20087;-70
2023/07/10 00:32:52;;;;;;;96.30;91.30;;;;;;;;;;5018284;28;20071;-72
2023/07/10 00:35:19;;;;;;;100.10;95.20;;;;;;;;;;5016707;28;20040;-72
2023/07/10 00:37:47;;;;;;;91.90;87.30;;;;;;;;;;5013762;28;20514;-71
2023/07/10 00:40:17;;;;;;;83.68;79.32;;;;;;;;;;5015192;28;20053;-71
2023/07/10 00:42:44;;;;;;;81.78;76.75;;;;;;;;;;5016689;28;20033;-72
2023/07/10 00:45:13;;;;;;;70.80;67.28;;;;;;;;;;5017110;28;20053;-71
2023/07/10 00:47:41;;;;;;;79.50;75.57;;;;;;;;;;5017677;28;20419;-71
2023/07/10 00:50:19;;;;;;;72.40;68.43;;;;;;;;;;5014237;28;20474;-71
2023/07/10 00:52:47;;;;;;;73.65;69.85;;;;;;;;;;5014353;28;20362;-71
2023/07/10 00:55:19;;;;;;;66.60;63.20;;;;;;;;;;5012991;28;20422;-71
2023/07/10 00:57:48;;;;;;;67.03;63.58;;;;;;;;;;5013513;28;20048;-71
2023/07/10 01:00:20;;;;;;;62.55;59.40;;;;;;;;;;5013990;28;20523;-71
2023/07/10 01:02:46;;;;;;;60.80;57.75;;;;;;;;;;5014752;28;20052;-71
2023/07/10 01:05:12;;;;;;;58.63;55.60;;;;;;;;;;5012202;28;20083;-71
2023/07/10 01:07:56;;;;;;;52.03;49.38;;;;;;;;;;5017605;28;20033;-71
2023/07/10 01:10:22;;;;;;;51.80;49.15;;;;;;;;;;5015423;28;20113;-71
2023/07/10 01:12:47;;;;;;;44.00;41.65;;;;;;;;;;5015108;28;20112;-71
2023/07/10 01:15:15;;;;;;;46.17;43.83;;;;;;;;;;5014781;28;20034;-71
2023/07/10 01:17:40;;;;;;;45.15;42.75;;;;;;;;;;5015339;28;20067;-71
2023/07/10 01:20:39;;;;;;;49.47;46.78;;;;;;;;;;5015074;28;20476;-71
2023/07/10 01:23:05;;;;;;;38.60;36.60;;;;;;;;;;5019803;28;20033;-71
2023/07/10 01:25:49;;;;;;;39.35;37.33;;;;;;;;;;5017311;28;20096;-70
2023/07/10 01:28:17;;;;;;;40.28;38.08;;;;;;;;;;5023447;28;20042;-71
2023/07/10 01:30:44;;;;;;;35.17;33.33;;;;;;;;;;5017392;28;20033;-71
2023/07/10 01:33:16;;;;;;;36.13;34.22;;;;;;;;;;5020599;28;20259;-70
2023/07/10 01:35:42;;;;;;;34.13;32.25;;;;;;;;;;5015569;28;20025;-70
2023/07/10 01:38:11;;;;;;;35.35;33.33;;;;;;;;;;5011592;28;20584;-71
2023/07/10 01:40:38;;;;;;;34.40;32.40;;;;;;;;;;5017328;28;20495;-71
2023/07/10 01:43:03;;;;;;;32.92;31.17;;;;;;;;;;5020342;28;20030;-71
2023/07/10 01:45:39;;;;;;;36.72;34.72;;;;;;;;;;5016841;28;20044;-71
2023/07/10 01:48:05;;;;;;;39.50;36.42;;;;;;;;;;5020667;28;20083;-71
2023/07/10 01:50:30;;;;;;;38.13;36.13;;;;;;;;;;5018247;28;20499;-71
2023/07/10 01:52:55;;;;;;;46.95;44.53;;;;;;;;;;5026586;28;20030;-70
2023/07/10 01:55:22;;;;;;;47.80;45.30;;;;;;;;;;5020044;28;20530;-70
2023/07/10 01:57:47;;;;;;;57.63;54.60;;;;;;;;;;5015914;28;20076;-70
2023/07/10 02:00:13;;;;;;;56.67;53.72;;;;;;;;;;5020358;28;20029;-71
2023/07/10 02:02:38;;;;;;;59.75;56.65;;;;;;;;;;5016408;28;20118;-71
2023/07/10 02:05:04;;;;;;;55.63;52.65;;;;;;;;;;5017501;28;20076;-71
2023/07/10 02:07:29;;;;;;;75.40;71.45;;;;;;;;;;5019763;28;20043;-71
2023/07/10 02:09:54;;;;;;;79.53;75.45;;;;;;;;;;5019442;28;20018;-71
2023/07/10 02:12:20;;;;;;;77.55;73.47;;;;;;;;;;5018176;28;20371;-71
2023/07/10 02:14:45;;;;;;;75.53;71.60;;;;;;;;;;5017703;28;20040;-71
2023/07/10 02:17:10;;;;;;;73.88;70.10;;;;;;;;;;5020226;28;20630;-71
2023/07/10 02:19:36;;;;;;;89.78;85.22;;;;;;;;;;5018301;28;20025;-71
2023/07/10 02:22:01;;;;;;;93.28;88.55;;;;;;;;;;5022747;28;20108;-68
2023/07/10 02:24:26;;;;;;;254.55;240.95;;;;;;;;;;5035422;28;20040;-73
2023/07/10 02:26:52;;;;;;;178.45;168.98;;;;;;;;;;5017512;28;20040;-76
2023/07/10 02:29:17;;;;;;;228.82;217.00;;;;;;;;;;5016500;28;20044;-78
2023/07/10 02:31:42;;;;;;;236.05;223.77;;;;;;;;;;5019016;28;20128;-76
2023/07/10 02:34:08;;;;;;;211.40;200.50;;;;;;;;;;5018139;28;20113;-77
2023/07/10 02:36:33;;;;;;;226.05;214.05;;;;;;;;;;5016318;28;20068;-78
2023/07/10 02:38:59;;;;;;;244.93;232.32;;;;;;;;;;5020748;28;20058;-77
2023/07/10 02:41:24;;;;;;;233.65;221.90;;;;;;;;;;5018521;28;20045;-76
2023/07/10 02:43:49;;;;;;;257.83;245.07;;;;;;;;;;5018296;28;20044;-76
2023/07/10 02:46:15;;;;;;;259.27;246.38;;;;;;;;;;5016902;28;20428;-75
2023/07/10 02:48:41;;;;;;;234.93;223.48;;;;;;;;;;5017333;28;20423;-76
2023/07/10 02:51:06;;;;;;;247.90;235.90;;;;;;;;;;5018149;28;20046;-77
2023/07/10 02:53:32;;;;;;;229.63;218.52;;;;;;;;;;5017063;28;20241;-78
2023/07/10 02:55:57;;;;;;;211.27;201.13;;;;;;;;;;5016475;28;20065;-79
2023/07/10 02:58:22;;;;;;;212.48;202.25;;;;;;;;;;5016894;28;20120;-78
2023/07/10 03:00:55;;;;;;;180.40;171.57;;;;;;;;;;5016680;28;20033;-79
2023/07/10 03:03:21;;;;;;;172.45;163.95;;;;;;;;;;5016984;28;20117;-80
2023/07/10 03:05:52;;;;;;;160.20;152.20;;;;;;;;;;5019598;28;20057;-79
2023/07/10 03:08:18;;;;;;;144.30;137.15;;;;;;;;;;5015914;28;20397;-72
2023/07/10 03:10:43;;;;;;;113.25;107.70;;;;;;;;;;5016608;28;20123;-80
2023/07/10 03:13:08;;;;;;;105.30;99.97;;;;;;;;;;5019932;28;20415;-79
2023/07/10 03:15:33;;;;;;;94.32;89.63;;;;;;;;;;5019654;28;20041;-79
2023/07/10 03:17:59;;;;;;;89.07;84.00;;;;;;;;;;5017677;28;20045;-80
2023/07/10 03:20:24;;;;;;;76.38;72.05;;;;;;;;;;5014962;28;20068;-71
2023/07/10 03:22:49;;;;;;;78.93;75.00;;;;;;;;;;5015558;28;20069;-76
2023/07/10 03:25:15;;;;;;;75.68;71.88;;;;;;;;;;5014836;28;20038;-78
2023/07/10 03:27:40;;;;;;;77.40;73.57;;;;;;;;;;5017785;28;20030;-77
2023/07/10 03:30:06;;;;;;;76.70;72.90;;;;;;;;;;5016061;28;20030;-72
2023/07/10 03:32:32;;;;;;;78.93;75.00;;;;;;;;;;5019932;28;20038;-72
2023/07/10 03:34:58;;;;;;;94.07;89.22;;;;;;;;;;5015308;28;20040;-72
2023/07/10 03:37:24;;;;;;;89.57;85.18;;;;;;;;;;5015900;28;20112;-72
2023/07/10 03:39:49;;;;;;;91.50;86.78;;;;;;;;;;5016477;28;20416;-71
2023/07/10 03:42:14;;;;;;;88.97;84.53;;;;;;;;;;5018649;28;20041;-80
2023/07/10 03:44:40;;;;;;;88.15;83.75;;;;;;;;;;5017017;28;20040;-71
2023/07/10 03:47:05;;;;;;;99.18;94.10;;;;;;;;;;5015829;28;20030;-71
2023/07/10 03:49:31;;;;;;;99.93;94.90;;;;;;;;;;5017986;28;20041;-79
2023/07/10 03:51:56;;;;;;;99.43;94.45;;;;;;;;;;5015490;28;20369;-79
2023/07/10 03:54:21;;;;;;;110.60;104.97;;;;;;;;;;5016658;28;20048;-80
2023/07/10 03:56:47;;;;;;;109.32;103.20;;;;;;;;;;5015652;28;20950;-71
2023/07/10 03:59:12;;;;;;;123.47;117.20;;;;;;;;;;5015476;28;20100;-71
2023/07/10 04:01:39;;;;;;;101.38;96.28;;;;;;;;;;5016627;28;20038;-72
2023/07/10 04:04:04;;;;;;;91.47;86.78;;;;;;;;;;5013098;28;20041;-77
2023/07/10 04:06:30;;;;;;;106.88;101.43;;;;;;;;;;5019177;28;20052;-71
2023/07/10 04:08:58;;;;;;;104.07;98.38;;;;;;;;;;5016514;28;20045;-71
2023/07/10 04:11:23;;;;;;;106.75;101.15;;;;;;;;;;5016262;28;20041;-77
2023/07/10 04:13:49;;;;;;;100.90;95.45;;;;;;;;;;5014423;28;20033;-77
2023/07/10 04:16:19;;;;;;;108.13;102.55;;;;;;;;;;5016994;28;20041;-71
2023/07/10 04:18:47;;;;;;;112.13;106.32;;;;;;;;;;5025433;28;20061;-76
2023/07/10 04:21:20;;;;;;;114.05;107.63;;;;;;;;;;5016449;28;20041;-76
2023/07/10 04:23:46;;;;;;;94.43;89.30;;;;;;;;;;4997730;28;20124;-78
2023/07/10 04:26:17;;;;;;;101.60;96.25;;;;;;;;;;5018187;28;20116;-72
2023/07/10 04:28:48;;;;;;;105.82;100.25;;;;;;;;;;5015999;28;20033;-71
2023/07/10 04:31:13;;;;;;;;;;;;;;;;;;5016146;28;20056;-71
2023/07/10 04:33:39;;;;;;;121.95;115.45;;;;;;;;;;5017658;28;19909;-71
2023/07/10 04:36:04;;;;;;;150.88;142.45;;;;;;;;;;5015817;28;20462;-70
2023/07/10 04:38:30;;;;;;;157.20;148.13;;;;;;;;;;5014404;28;20112;-71
2023/07/10 04:40:57;;;;;;;177.55;167.27;;;;;;;;;;5024694;28;20486;-75
2023/07/10 04:43:25;;;;;;;174.93;163.85;;;;;;;;;;5013342;28;20494;-71
2023/07/10 04:45:53;;;;;;;171.30;161.88;;;;;;;;;;5016452;28;20411;-71
2023/07/10 04:48:19;;;;;;;181.20;171.27;;;;;;;;;;5020247;28;20462;-76
2023/07/10 04:50:47;;;;;;;189.07;178.68;;;;;;;;;;5014942;28;20124;-71
2023/07/10 04:53:12;;;;;;;200.43;189.40;;;;;;;;;;5013633;28;20048;-74
2023/07/10 04:55:38;;;;;;;203.60;192.43;;;;;;;;;;5016549;28;20037;-75
2023/07/10 04:58:03;;;;;;;205.07;193.95;;;;;;;;;;5002403;28;20049;-75
2023/07/10 05:00:28;;;;;;;205.43;194.13;;;;;;;;;;5017717;28;20053;-75
2023/07/10 05:02:54;;;;;;;185.68;175.48;;;;;;;;;;5020477;28;20120;-74
2023/07/10 05:05:19;;;;;;;170.75;161.52;;;;;;;;;;5014595;28;20116;-75
2023/07/10 05:07:44;;;;;;;166.27;157.40;;;;;;;;;;5011696;28;20034;-75
2023/07/10 05:10:10;;;;;;;148.00;140.05;;;;;;;;;;5015366;28;20034;-72
2023/07/10 05:12:35;;;;;;;136.18;128.77;;;;;;;;;;5015764;28;20049;-72
2023/07/10 05:15:00;;;;;;;123.38;116.97;;;;;;;;;;5016390;28;20077;-71
2023/07/10 05:17:26;;;;;;;113.18;107.00;;;;;;;;;;5018081;28;20033;-73
2023/07/10 05:19:51;;;;;;;103.90;98.30;;;;;;;;;;5013315;28;20049;-71
2023/07/10 05:22:16;;;;;;;97.30;92.30;;;;;;;;;;5013681;28;20059;-73
2023/07/10 05:24:42;;;;;;;94.38;89.50;;;;;;;;;;5016183;28;20364;-69
2023/07/10 05:27:07;;;;;;;85.38;80.85;;;;;;;;;;5017502;28;20104;-76
2023/07/10 05:29:32;;;;;;;92.97;88.10;;;;;;;;;;5011522;28;20091;-75
2023/07/10 05:31:58;;;;;;;90.13;85.30;;;;;;;;;;4997023;28;20073;-74
2023/07/10 05:34:25;;;;;;;95.75;90.63;;;;;;;;;;5015556;28;20029;-74
2023/07/10 05:36:51;;;;;;;107.45;101.82;;;;;;;;;;5012058;28;20059;-72
2023/07/10 05:39:16;;;;;;;109.68;104.00;;;;;;;;;;5015498;28;20041;-71
2023/07/10 05:41:42;;;;;;;112.18;106.32;;;;;;;;;;5015842;28;20049;-70
2023/07/10 05:44:07;;;;;;;108.95;103.40;;;;;;;;;;5014085;28;20033;-70
2023/07/10 05:46:33;;;;;;;107.53;101.90;;;;;;;;;;5019329;28;20124;-71
2023/07/10 05:48:58;;;;;;;111.38;105.65;;;;;;;;;;5012632;28;20033;-68
2023/07/10 05:51:23;;;;;;;106.43;100.88;;;;;;;;;;5023104;28;20801;-69
2023/07/10 05:53:49;;;;;;;106.53;101.05;;;;;;;;;;5013524;28;20025;-69
2023/07/10 05:56:14;;;;;;;108.57;102.97;;;;;;;;;;5013781;28;20030;-69
2023/07/10 05:58:40;;;;;;;110.80;104.63;;;;;;;;;;5017017;28;20044;-73
2023/07/10 06:01:06;;;;;;;113.45;107.50;;;;;;;;;;5015176;28;20037;-73
2023/07/10 06:03:33;;;;;;;112.28;106.45;;;;;;;;;;5013428;28;20107;-73
2023/07/10 06:06:04;;;;;;;113.70;107.80;;;;;;;;;;5014842;28;20041;-73
2023/07/10 06:08:31;;;;;;;111.65;105.65;;;;;;;;;;5015428;28;20041;-72
2023/07/10 06:10:57;;;;;;;97.30;92.15;;;;;;;;;;5016870;28;20030;-72
2023/07/10 06:13:22;;;;;;;95.47;90.38;;;;;;;;;;5018153;28;20070;-75
2023/07/10 06:15:50;;;;;;;106.57;101.05;;;;;;;;;;5016524;28;20045;-70
2023/07/10 06:18:17;;;;;;;81.13;76.85;;;;;;;;;;5022513;28;20045;-70
2023/07/10 06:20:42;;;;;;;86.70;81.82;;;;;;;;;;5019473;28;20079;-69
2023/07/10 06:23:08;;;;;;;68.35;64.63;;;;;;;;;;5020339;28;20037;-69
2023/07/10 06:25:34;;;;;;;68.13;64.30;;;;;;;;;;5016481;28;20045;-68
2023/07/10 06:27:59;;;;;;;70.63;66.85;;;;;;;;;;5017493;28;20037;-75
2023/07/10 06:30:24;;;;;;;60.72;57.50;;;;;;;;;;5015595;28;20209;-68
2023/07/10 06:32:51;;;;;;;64.57;61.17;;;;;;;;;;5017757;28;20037;-69
2023/07/10 06:35:16;;;;;;;62.72;59.30;;;;;;;;;;5015327;28;20029;-67
2023/07/10 06:37:43;;;;;;;67.45;63.85;;;;;;;;;;5015093;28;20430;-68
2023/07/10 06:40:15;;;;;;;76.72;72.60;;;;;;;;;;5018473;28;20040;-67
2023/07/10 06:42:42;;;;;;;76.72;72.60;;;;;;;;;;5016407;28;20116;-75
2023/07/10 06:45:10;;;;;;;73.28;69.38;;;;;;;;;;5015673;28;20088;-77
2023/07/10 06:47:44;;;;;;;62.20;58.85;;;;;;;;;;5016279;28;20040;-75
2023/07/10 06:50:12;;;;;;;84.85;80.20;;;;;;;;;;5026333;28;20040;-68
2023/07/10 06:52:40;;;;;;;69.10;65.32;;;;;;;;;;5021079;28;20292;-68
2023/07/10 06:55:07;;;;;;;111.00;105.32;;;;;;;;;;5011896;28;20037;-69
2023/07/10 06:57:34;;;;;;;118.38;112.30;;;;;;;;;;5016987;28;20041;-69
2023/07/10 06:59:59;;;;;;;172.02;163.52;;;;;;;;;;5011738;28;20061;-69
2023/07/10 07:02:25;;;;;;;166.90;158.52;;;;;;;;;;5017338;28;20104;-72
2023/07/10 07:04:50;;;;;;;155.15;147.32;;;;;;;;;;5015529;28;20037;-74
2023/07/10 07:07:16;;;;;;;281.55;267.70;;;;;;;;;;5017911;28;20045;-74
2023/07/10 07:09:43;;;;;;;249.35;237.02;;;;;;;;;;5016308;28;20039;-75
2023/07/10 07:12:09;;;;;;;271.70;258.30;;;;;;;;;;5015727;28;20038;-75
2023/07/10 07:14:35;;;;;;;353.52;335.80;;;;;;;;;;5015706;28;20361;-75
2023/07/10 07:17:00;;;;;;;371.85;353.02;;;;;;;;;;5015793;28;20048;-77
2023/07/10 07:19:25;;;;;;;342.70;325.60;;;;;;;;;;5015009;28;20037;-76
2023/07/10 07:21:51;;;;;;;307.88;292.55;;;;;;;;;;5016930;28;20030;-76
2023/07/10 07:24:16;;;;;;;276.60;262.90;;;;;;;;;;5015640;28;20455;-69
2023/07/10 07:26:42;;;;;;;239.52;227.68;;;;;;;;;;5022268;28;20415;-76
2023/07/10 07:29:07;;;;;;;252.45;239.65;;;;;;;;;;5015144;28;20057;-76
2023/07/10 07:31:33;;;;;;;300.38;285.40;;;;;;;;;;5014485;28;20496;-75
2023/07/10 07:33:58;;;;;;;347.83;330.30;;;;;;;;;;5014771;28;20041;-76
2023/07/10 07:36:24;;;;;;;310.13;294.80;;;;;;;;;;5015308;28;20042;-75
2023/07/10 07:38:49;;;;;;;345.58;328.20;;;;;;;;;;5015999;28;20048;-76
2023/07/10 07:41:15;;;;;;;236.27;224.80;;;;;;;;;;5013990;28;20038;-77
2023/07/10 07:43:40;;;;;;;272.15;258.70;;;;;;;;;;5012826;28;20033;-76
2023/07/10 07:46:06;;;;;;;234.90;223.35;;;;;;;;;;5013572;28;20070;-77
2023/07/10 07:48:31;;;;;;;262.85;250.10;;;;;;;;;;5018373;28;20060;-70
2023/07/10 07:51:03;;;;;;;272.77;259.42;;;;;;;;;;5015996;28;20045;-69
2023/07/10 07:53:30;;;;;;;228.80;217.55;;;;;;;;;;5018369;28;20418;-69
2023/07/10 07:55:56;;;;;;;355.95;338.10;;;;;;;;;;5013534;28;20025;-69
2023/07/10 07:58:21;;;;;;;234.18;222.40;;;;;;;;;;5014710;28;20102;-69
2023/07/10 08:00:49;;;;;;;177.75;168.85;;;;;;;;;;5019266;28;20052;-72
2023/07/10 08:03:14;;;;;;;142.50;135.23;;;;;;;;;;5018533;28;20074;-71
2023/07/10 08:05:39;;;;;;;171.23;162.57;;;;;;;;;;5013541;28;20351;-72
2023/07/10 08:08:07;;;;;;;156.52;148.57;;;;;;;;;;5014225;28;20033;-69
2023/07/10 08:10:37;;;;;;;30.02;28.33;;;;;;;;;;5018849;28;20033;-70
2023/07/10 08:13:04;;;;;;;28.75;27.02;;;;;;;;;;5014919;28;20132;-70
2023/07/10 08:15:30;;;;;;;33.47;31.23;;;;;;;;;;5014637;28;20427;-71
2023/07/10 08:17:55;;;;;;;26.50;24.90;;;;;;;;;;5015837;28;20060;-71
2023/07/10 08:20:21;;;;;;;22.50;21.08;;;;;;;;;;5017377;28;20033;-70
2023/07/10 08:22:46;;;;;;;24.38;22.95;;;;;;;;;;5016512;28;20040;-71
2023/07/10 08:25:11;;;;;;;24.45;23.05;;;;;;;;;;5015296;28;20114;-71
2023/07/10 08:27:37;;;;;;;28.70;26.75;;;;;;;;;;5019530;28;20033;-71
2023/07/10 08:30:03;;;;;;;29.63;27.67;;;;;;;;;;5013243;28;20025;-71
2023/07/10 08:32:28;;;;;;;29.52;27.83;;;;;;;;;;5017020;28;20033;-71
2023/07/10 08:34:53;;;;;;;25.83;24.23;;;;;;;;;;5016104;28;20025;-71
2023/07/10 08:37:19;;;;;;;29.25;27.55;;;;;;;;;;5017246;28;20033;-71
2023/07/10 08:39:44;;;;;;;31.38;29.48;;;;;;;;;;5014215;28;20037;-71
2023/07/10 08:42:22;;;;;;;29.27;27.58;;;;;;;;;;5012532;28;20107;-70
2023/07/10 08:44:51;;;;;;;30.65;28.77;;;;;;;;;;5017195;28;20045;-70
2023/07/10 08:47:21;;;;;;;33.55;31.73;;;;;;;;;;5015074;28;20109;-70
2023/07/10 08:49:54;;;;;;;32.25;30.42;;;;;;;;;;5010892;28;20057;-70
2023/07/10 08:53:03;;;;;;;38.30;36.20;;;;;;;;;;5015838;28;20450;-70
2023/07/10 08:55:58;;;;;;;46.03;43.63;;;;;;;;;;5013352;28;20044;-70
2023/07/10 08:58:27;;;;;;;52.08;49.38;;;;;;;;;;5014977;28;20038;-71
2023/07/10 09:00:56;;;;;;;59.83;56.47;;;;;;;;;;5015953;28;20404;-72
2023/07/10 09:03:28;;;;;;;64.20;60.90;;;;;;;;;;5017123;28;20065;-69
2023/07/10 09:05:53;;;;;;;48.28;45.63;;;;;;;;;;5014079;28;20034;-70
2023/07/10 09:08:21;;;;;;;64.45;61.15;;;;;;;;;;5010997;28;20034;-70
2023/07/10 09:10:51;;;;;;;65.50;62.10;;;;;;;;;;5013766;28;20037;-70
2023/07/10 09:13:24;;;;;;;72.18;68.47;;;;;;;;;;5014102;28;20038;-70
2023/07/10 09:15:55;;;;;;;60.42;57.30;;;;;;;;;;5015629;28;20033;-71
2023/07/10 09:18:58;;;;;;;65.38;61.50;;;;;;;;;;5013600;28;20232;-71
2023/07/10 09:21:31;;;;;;;64.93;61.63;;;;;;;;;;5013378;28;20468;-71
2023/07/10 09:23:56;;;;;;;66.18;62.80;;;;;;;;;;5015308;28;20096;-71
2023/07/10 09:26:30;;;;;;;88.50;84.05;;;;;;;;;;5013707;28;20084;-71
2023/07/10 09:29:10;;;;;;;82.97;78.55;;;;;;;;;;5013581;28;20065;-71
2023/07/10 09:32:15;;;;;;;92.88;88.28;;;;;;;;;;5014456;28;20044;-71
2023/07/10 09:34:46;;;;;;;70.20;66.60;;;;;;;;;;5016777;28;20026;-70
2023/07/10 09:37:14;;;;;;;95.32;90.00;;;;;;;;;;5016278;28;20053;-71
2023/07/10 09:39:39;;;;;;;80.78;76.35;;;;;;;;;;5013318;28;20022;-71
2023/07/10 09:42:12;;;;;;;84.18;79.80;;;;;;;;;;5013333;28;20075;-71
2023/07/10 09:44:43;;;;;;;85.65;81.32;;;;;;;;;;5016794;28;20033;-71
2023/07/10 09:47:11;;;;;;;130.77;124.13;;;;;;;;;;5010166;28;20390;-71
2023/07/10 09:49:44;;;;;;;177.00;168.20;;;;;;;;;;5019083;28;20535;-72
2023/07/10 09:52:18;;;;;;;193.00;183.52;;;;;;;;;;5016357;28;20045;-73
2023/07/10 09:54:44;;;;;;;203.77;193.77;;;;;;;;;;5016703;28;20499;-72
2023/07/10 09:57:15;;;;;;;226.10;215.07;;;;;;;;;;5019077;28;20284;-70
2023/07/10 09:59:48;;;;;;;188.35;179.13;;;;;;;;;;5017036;28;20112;-70
2023/07/10 10:02:21;;;;;;;134.15;127.53;;;;;;;;;;5017673;28;20356;-71
2023/07/10 10:05:05;;;;;;;164.63;156.45;;;;;;;;;;5016043;28;20030;-72
2023/07/10 10:07:41;;;;;;;178.27;169.45;;;;;;;;;;5018680;28;20091;-70
2023/07/10 10:10:33;;;;;;;221.02;210.23;;;;;;;;;;5016647;28;20049;-70
2023/07/10 10:13:13;;;;;;;235.07;223.68;;;;;;;;;;5017917;28;20577;-71
2023/07/10 10:15:48;;;;;;;178.77;169.98;;;;;;;;;;5014667;28;20041;-71
2023/07/10 10:18:24;;;;;;;177.55;168.07;;;;;;;;;;5019360;28;20438;-71
2023/07/10 10:20:50;;;;;;;132.27;124.55;;;;;;;;;;5019532;28;20025;-72
2023/07/10 10:23:31;;;;;;;131.82;125.25;;;;;;;;;;5015528;28;20045;-74
2023/07/10 10:26:22;;;;;;;146.27;138.98;;;;;;;;;;5016778;28;20482;-74
2023/07/10 10:29:25;;;;;;;187.70;178.18;;;;;;;;;;5017266;28;20047;-72
2023/07/10 10:32:00;;;;;;;200.05;189.68;;;;;;;;;;5018367;28;20116;-73
2023/07/10 10:34:49;;;;;;;210.57;200.35;;;;;;;;;;5017055;28;20478;-73
2023/07/10 10:37:31;;;;;;;225.80;214.77;;;;;;;;;;5015535;28;20042;-71
2023/07/10 10:40:01;;;;;;;173.68;164.82;;;;;;;;;;5018224;28;20770;-73
2023/07/10 10:42:35;;;;;;;138.77;131.20;;;;;;;;;;5015144;28;20033;-72
2023/07/10 10:45:14;;;;;;;153.32;145.73;;;;;;;;;;5014476;28;20034;-74
2023/07/10 10:47:57;;;;;;;136.60;129.80;;;;;;;;;;5018314;28;20503;-75
2023/07/10 10:50:36;;;;;;;144.38;137.13;;;;;;;;;;5018125;28;20052;-75
2023/07/10 10:53:28;;;;;;;193.45;183.95;;;;;;;;;;5019840;28;20038;-74
2023/07/10 10:56:11;;;;;;;179.68;170.77;;;;;;;;;;5017973;28;20333;-72
2023/07/10 10:58:50;;;;;;;172.65;164.15;;;;;;;;;;5017313;28;20082;-73
2023/07/10 11:01:35;;;;;;;208.80;198.50;;;;;;;;;;5014257;28;20045;-73
2023/07/10 11:04:22;;;;;;;206.52;196.40;;;;;;;;;;5016459;28;20138;-74
2023/07/10 11:07:04;;;;;;;121.28;115.28;;;;;;;;;;5019691;28;20363;-72
2023/07/10 11:09:41;;;;;;;162.38;154.30;;;;;;;;;;5020604;28;20243;-71
2023/07/10 11:12:15;;;;;;;177.43;168.65;;;;;;;;;;5016518;28;20049;-71
2023/07/10 11:14:41;;;;;;;223.73;212.70;;;;;;;;;;5017862;28;20087;-72
2023/07/10 11:17:10;;;;;;;236.82;225.23;;;;;;;;;;5014781;28;20041;-73
2023/07/10 11:19:35;;;;;;;201.20;191.32;;;;;;;;;;5020002;28;20430;-72
2023/07/10 11:22:21;;;;;;;238.70;227.05;;;;;;;;;;5017811;28;20104;-73
2023/07/10 11:24:48;;;;;;;133.98;127.28;;;;;;;;;;5015967;28;20061;-73
2023/07/10 11:27:22;;;;;;;155.30;147.63;;;;;;;;;;5013427;28;20345;-73
2023/07/10 11:29:55;;;;;;;229.30;217.98;;;;;;;;;;5015001;28;20029;-73
2023/07/10 11:32:24;;;;;;;139.02;132.02;;;;;;;;;;5016140;28;20061;-73
2023/07/10 11:35:13;;;;;;;158.55;150.68;;;;;;;;;;5015857;28;20541;-73
2023/07/10 11:37:41;;;;;;;191.15;181.75;;;;;;;;;;5018027;28;20123;-73
2023/07/10 11:40:35;;;;;;;149.13;141.68;;;;;;;;;;5013345;28;20538;-73
2023/07/10 11:43:27;;;;;;;153.82;146.20;;;;;;;;;;5017149;28;20107;-72
2023/07/10 11:46:01;;;;;;;125.07;118.82;;;;;;;;;;5015357;28;20053;-71
2023/07/10 11:48:39;;;;;;;106.75;101.32;;;;;;;;;;5016563;28;20065;-72
2023/07/10 11:51:24;;;;;;;113.55;107.90;;;;;;;;;;5014988;28;20337;-73
2023/07/10 11:54:20;;;;;;;205.10;195.00;;;;;;;;;;5015541;28;20041;-72
2023/07/10 11:57:20;;;;;;;88.68;84.22;;;;;;;;;;5000428;28;20472;-72
2023/07/10 11:59:56;;;;;;;73.50;69.75;;;;;;;;;;5010297;28;20567;-73
2023/07/10 12:02:33;;;;;;;71.75;68.07;;;;;;;;;;5014682;28;20451;-72
2023/07/10 12:05:18;;;;;;;118.22;112.40;;;;;;;;;;5015450;28;20345;-71
2023/07/10 12:07:54;;;;;;;60.13;57.08;;;;;;;;;;5012654;28;20117;-72
2023/07/10 12:10:20;;;;;;;54.58;51.78;;;;;;;;;;5015422;28;20042;-73
2023/07/10 12:12:46;;;;;;;51.88;49.17;;;;;;;;;;5015818;28;20025;-71
2023/07/10 12:15:11;;;;;;;99.60;94.57;;;;;;;;;;5016326;28;20037;-72
2023/07/10 12:17:39;;;;;;;72.82;69.13;;;;;;;;;;5018090;28;20037;-72
2023/07/10 12:20:22;;;;;;;62.13;58.83;;;;;;;;;;5017110;28;20444;-72
2023/07/10 12:22:50;;;;;;;59.13;56.05;;;;;;;;;;5015286;28;20034;-73
2023/07/10 12:25:17;;;;;;;90.40;85.43;;;;;;;;;;5029769;28;20041;-72
2023/07/10 12:27:42;;;;;;;110.68;105.13;;;;;;;;;;5015329;28;20040;-72
2023/07/10 12:30:19;;;;;;;104.18;99.03;;;;;;;;;;5013249;28;20034;-72
2023/07/10 12:32:46;;;;;;;100.75;95.78;;;;;;;;;;5013831;28;20149;-71
2023/07/10 12:35:13;;;;;;;103.43;98.30;;;;;;;;;;5012141;28;20041;-74
2023/07/10 12:37:44;;;;;;;97.93;93.10;;;;;;;;;;5016313;28;20033;-72
2023/07/10 12:40:14;;;;;;;62.15;58.92;;;;;;;;;;5013500;28;20057;-71
2023/07/10 12:42:42;;;;;;;77.97;74.05;;;;;;;;;;5023641;28;20026;-72
2023/07/10 12:45:16;;;;;;;86.57;82.28;;;;;;;;;;5013950;28;20037;-76
2023/07/10 12:47:47;;;;;;;86.25;81.95;;;;;;;;;;5015414;28;20057;-73
2023/07/10 12:50:13;;;;;;;109.38;103.95;;;;;;;;;;5009548;28;20045;-72
2023/07/10 12:52:39;;;;;;;83.20;79.07;;;;;;;;;;5016517;28;20518;-73
2023/07/10 12:55:12;;;;;;;88.32;83.88;;;;;;;;;;5016957;28;20428;-72
2023/07/10 12:57:37;;;;;;;90.15;85.65;;;;;;;;;;5018087;28;20068;-72
2023/07/10 13:00:08;;;;;;;85.43;81.18;;;;;;;;;;5016758;28;20033;-72
2023/07/10 13:02:38;;;;;;;90.07;85.57;;;;;;;;;;5013580;28;20472;-73
2023/07/10 13:05:13;;;;;;;90.25;85.75;;;;;;;;;;5013766;28;20047;-72
2023/07/10 13:07:41;;;;;;;77.22;73.38;;;;;;;;;;5014245;28;20034;-74
2023/07/10 13:10:24;;;;;;;82.68;78.53;;;;;;;;;;5016208;28;20124;-71
2023/07/10 13:12:52;;;;;;;74.82;71.07;;;;;;;;;;5016968;28;20505;-72
2023/07/10 13:15:19;;;;;;;80.22;76.22;;;;;;;;;;5015193;28;20123;-72
2023/07/10 13:17:53;;;;;;;74.90;71.03;;;;;;;;;;5018178;28;20095;-71
2023/07/10 13:20:24;;;;;;;59.88;56.80;;;;;;;;;;5018371;28;20570;-73
2023/07/10 13:22:51;;;;;;;55.85;53.03;;;;;;;;;;5021474;28;20128;-72
2023/07/10 13:25:16;;;;;;;57.05;54.15;;;;;;;;;;5018165;28;20675;-73
2023/07/10 13:27:41;;;;;;;67.68;64.28;;;;;;;;;;5020064;28;20113;-72
2023/07/10 13:30:18;;;;;;;84.07;79.45;;;;;;;;;;5018797;28;20518;-72
2023/07/10 13:32:44;;;;;;;83.93;79.75;;;;;;;;;;5026441;28;20033;-73
2023/07/10 13:35:10;;;;;;;66.53;63.10;;;;;;;;;;5019155;28;20041;-72
2023/07/10 13:37:35;;;;;;;102.30;96.82;;;;;;;;;;5016989;28;20034;-73
2023/07/10 13:40:00;;;;;;;108.53;103.10;;;;;;;;;;5010118;28;20080;-72
2023/07/10 13:42:26;;;;;;;109.10;103.68;;;;;;;;;;5010056;28;20038;-73
2023/07/10 13:44:53;;;;;;;75.65;71.85;;;;;;;;;;5008631;28;20040;-71
2023/07/10 13:47:20;;;;;;;105.28;100.07;;;;;;;;;;5015596;28;20064;-71
2023/07/10 13:49:46;;;;;;;57.75;54.80;;;;;;;;;;5018651;28;20087;-71
2023/07/10 13:52:21;;;;;;;102.03;96.97;;;;;;;;;;5018351;28;20459;-72
2023/07/10 13:54:48;;;;;;;51.83;49.15;;;;;;;;;;5018040;28;20048;-72
2023/07/10 13:57:34;;;;;;;35.78;33.90;;;;;;;;;;5017052;28;20462;-72
2023/07/10 14:00:00;;;;;;;42.00;39.88;;;;;;;;;;5019725;28;20468;-73
2023/07/10 14:02:46;;;;;;;36.20;34.28;;;;;;;;;;5016708;28;20034;-73
2023/07/10 14:05:14;;;;;;;50.75;48.00;;;;;;;;;;5018301;28;20034;-72
2023/07/10 14:07:42;;;;;;;22.13;20.90;;;;;;;;;;5016834;28;20060;-76
2023/07/10 14:10:13;;;;;;;34.47;32.67;;;;;;;;;;5019352;28;20124;-74
2023/07/10 14:12:39;;;;;;;28.17;26.55;;;;;;;;;;5015867;28;20087;-75
2023/07/10 14:15:05;;;;;;;34.13;32.15;;;;;;;;;;5016996;28;20455;-72
2023/07/10 14:17:34;;;;;;;20.10;19.00;;;;;;;;;;5015529;28;20069;-76
2023/07/10 14:20:01;;;;;;;40.03;37.97;;;;;;;;;;5017112;28;20075;-77